Time;durP1;ratioP1;P1;durP2;ratioP2;P2;SDS_P1;SDS_P2;PMS_P1;PMS_P2;Temp;Humidity;BMP_temperature;BMP_pressure;BME280_temperature;BME280_humidity;BME280_pressure;Samples;Min_cycle;Max_cycle;Signal;HPM_P1;HPM_P2
2022/03/29 00:01:58;;;;;;;6.65;4.70;;;7.00;80.00;;;;;;5057469;28;20040;-68
2022/03/29 00:04:24;;;;;;;6.93;5.18;;;7.00;79.50;;;;;;5054022;28;20025;-68
2022/03/29 00:06:50;;;;;;;8.10;5.53;;;7.00;81.20;;;;;;5057607;28;20091;-68
2022/03/29 00:09:17;;;;;;;7.72;4.93;;;7.10;80.90;;;;;;5049691;28;20416;-68
2022/03/29 00:11:43;;;;;;;7.15;5.15;;;7.10;78.90;;;;;;5036948;28;20049;-68
2022/03/29 00:14:09;;;;;;;7.63;5.03;;;7.00;79.50;;;;;;5035395;28;20102;-68
2022/03/29 00:16:35;;;;;;;11.13;5.80;;;6.90;80.30;;;;;;5051665;28;20037;-68
2022/03/29 00:19:00;;;;;;;7.85;5.30;;;6.80;80.40;;;;;;5057390;28;20102;-68
2022/03/29 00:21:27;;;;;;;10.25;4.82;;;6.80;80.80;;;;;;5054433;28;20029;-68
2022/03/29 00:23:53;;;;;;;8.20;5.10;;;6.70;81.20;;;;;;5054815;28;20120;-68
2022/03/29 00:26:19;;;;;;;6.40;5.47;;;6.70;81.50;;;;;;5053675;28;20101;-68
2022/03/29 00:28:45;;;;;;;7.97;5.47;;;6.70;82.10;;;;;;5053252;28;20055;-68
2022/03/29 00:31:12;;;;;;;6.35;5.53;;;6.60;82.20;;;;;;5052594;28;20032;-68
2022/03/29 00:33:38;;;;;;;7.68;5.15;;;6.60;82.80;;;;;;5055571;28;20053;-68
2022/03/29 00:36:04;;;;;;;8.85;5.60;;;6.60;82.70;;;;;;5054269;28;20067;-68
2022/03/29 00:38:30;;;;;;;10.88;6.35;;;6.70;83.40;;;;;;5057629;28;20065;-68
2022/03/29 00:40:57;;;;;;;9.35;6.43;;;6.70;83.50;;;;;;5052503;28;20047;-68
2022/03/29 00:43:23;;;;;;;13.18;7.88;;;6.60;84.10;;;;;;5053183;28;20856;-69
2022/03/29 00:45:49;;;;;;;13.20;8.15;;;6.80;84.00;;;;;;5060179;28;20102;-69
2022/03/29 00:48:15;;;;;;;9.98;5.55;;;7.10;83.50;;;;;;5040981;28;20040;-68
2022/03/29 00:50:42;;;;;;;10.35;5.53;;;7.20;81.40;;;;;;5054231;28;20457;-68
2022/03/29 00:53:09;;;;;;;8.45;6.55;;;7.10;81.00;;;;;;5056810;28;20162;-68
2022/03/29 00:55:36;;;;;;;15.02;9.65;;;7.10;82.20;;;;;;5054413;28;20048;-68
2022/03/29 00:58:03;;;;;;;17.00;9.98;;;7.30;82.80;;;;;;5057878;28;20047;-68
2022/03/29 01:00:31;;;;;;;18.85;10.48;;;7.60;84.10;;;;;;5053213;28;20371;-68
2022/03/29 01:02:58;;;;;;;16.77;10.25;;;7.70;85.20;;;;;;5053042;28;20055;-68
2022/03/29 01:05:26;;;;;;;14.73;10.95;;;7.80;85.10;;;;;;5048897;28;20039;-68
2022/03/29 01:07:56;;;;;;;18.42;12.25;;;7.90;85.10;;;;;;5050943;28;20037;-68
2022/03/29 01:10:22;;;;;;;13.88;10.93;;;8.10;85.00;;;;;;5054548;28;20033;-68
2022/03/29 01:12:48;;;;;;;16.23;11.10;;;8.20;85.30;;;;;;5055447;28;20074;-68
2022/03/29 01:15:16;;;;;;;14.77;10.93;;;8.20;85.60;;;;;;5036534;28;20025;-68
2022/03/29 01:17:43;;;;;;;17.23;10.90;;;8.30;86.10;;;;;;5054188;28;20032;-68
2022/03/29 01:20:16;;;;;;;15.57;10.63;;;8.40;85.00;;;;;;5049229;28;20395;-68
2022/03/29 01:22:46;;;;;;;21.88;11.23;;;8.60;86.10;;;;;;5049395;28;20044;-68
2022/03/29 01:25:23;;;;;;;18.10;10.90;;;8.70;83.80;;;;;;5039354;28;20566;-68
2022/03/29 01:27:51;;;;;;;19.27;12.38;;;8.90;82.80;;;;;;5039207;28;20057;-68
2022/03/29 01:30:17;;;;;;;18.23;11.43;;;9.10;82.90;;;;;;5054857;28;20036;-68
2022/03/29 01:32:48;;;;;;;13.80;10.80;;;9.10;82.20;;;;;;5053933;28;20056;-68
2022/03/29 01:35:17;;;;;;;15.15;10.70;;;9.00;83.00;;;;;;5052344;28;20028;-69
2022/03/29 01:37:43;;;;;;;19.40;11.30;;;8.90;83.80;;;;;;5047923;28;20044;-68
2022/03/29 01:40:12;;;;;;;15.65;10.52;;;8.90;84.50;;;;;;5053301;28;20502;-68
2022/03/29 01:42:38;;;;;;;18.15;10.95;;;8.80;84.70;;;;;;5053038;28;20049;-68
2022/03/29 01:45:05;;;;;;;17.38;10.30;;;8.80;85.10;;;;;;5053714;28;20118;-68
2022/03/29 01:47:30;;;;;;;15.20;10.93;;;8.80;85.90;;;;;;5058600;28;20033;-68
2022/03/29 01:49:56;;;;;;;19.40;11.55;;;8.80;87.00;;;;;;5057442;28;20045;-68
2022/03/29 01:52:22;;;;;;;15.40;11.02;;;8.90;87.60;;;;;;5056297;28;20048;-68
2022/03/29 01:54:47;;;;;;;20.42;10.65;;;9.00;87.10;;;;;;5054758;28;21176;-68
2022/03/29 01:57:13;;;;;;;16.45;10.63;;;9.00;86.50;;;;;;5062541;28;20036;-68
2022/03/29 02:02:23;;;;;;;18.30;10.82;;;8.80;87.00;;;;;;5052337;28;20176;-68
2022/03/29 02:04:49;;;;;;;20.83;11.25;;;8.70;87.90;;;;;;5049141;28;20041;-68
2022/03/29 02:07:16;;;;;;;17.45;10.43;;;8.70;88.20;;;;;;5048831;28;20044;-68
2022/03/29 02:09:42;;;;;;;16.33;9.95;;;8.80;89.00;;;;;;5050110;28;20046;-68
2022/03/29 02:12:10;;;;;;;17.73;10.60;;;8.90;89.20;;;;;;5046780;28;20160;-68
2022/03/29 02:14:36;;;;;;;14.75;10.23;;;9.00;88.70;;;;;;5048236;28;20052;-68
2022/03/29 02:17:02;;;;;;;16.33;10.27;;;9.10;88.10;;;;;;5039990;28;20461;-68
2022/03/29 02:19:27;;;;;;;19.83;10.25;;;9.10;87.70;;;;;;5054013;28;20075;-68
2022/03/29 02:21:53;;;;;;;15.50;10.05;;;9.00;88.20;;;;;;5058565;28;20039;-68
2022/03/29 02:24:18;;;;;;;20.42;10.60;;;9.10;88.00;;;;;;5055785;28;20039;-68
2022/03/29 02:26:44;;;;;;;14.82;10.43;;;9.10;87.70;;;;;;5039504;28;20153;-68
2022/03/29 02:29:10;;;;;;;14.02;9.77;;;9.10;86.90;;;;;;5047769;28;20029;-68
2022/03/29 02:31:36;;;;;;;19.85;10.77;;;9.20;86.60;;;;;;5056486;28;20056;-68
2022/03/29 02:34:02;;;;;;;17.60;9.85;;;9.40;85.80;;;;;;5045696;28;20417;-67
2022/03/29 02:36:28;;;;;;;18.65;10.13;;;9.50;84.80;;;;;;5045634;28;20666;-68
2022/03/29 02:38:54;;;;;;;15.73;10.20;;;9.70;83.80;;;;;;5054661;28;20106;-68
2022/03/29 02:41:20;;;;;;;16.77;10.23;;;9.70;82.60;;;;;;5060018;28;20037;-68
2022/03/29 02:43:46;;;;;;;14.38;9.38;;;9.80;82.10;;;;;;5058727;28;20029;-68
2022/03/29 02:46:11;;;;;;;29.45;13.27;;;9.80;81.60;;;;;;5055169;28;20119;-68
2022/03/29 02:48:37;;;;;;;22.52;11.38;;;9.90;81.30;;;;;;5057110;28;20041;-68
2022/03/29 02:51:03;;;;;;;17.20;9.70;;;10.00;80.90;;;;;;5054779;28;20472;-68
2022/03/29 02:53:28;;;;;;;14.32;9.05;;;10.10;80.10;;;;;;5057636;28;20060;-69
2022/03/29 02:55:54;;;;;;;15.10;7.90;;;10.20;79.30;;;;;;5057424;28;20087;-69
2022/03/29 02:58:20;;;;;;;10.90;8.32;;;10.30;78.50;;;;;;5051626;28;20106;-69
2022/03/29 03:00:45;;;;;;;12.52;9.27;;;10.50;77.70;;;;;;5064453;28;20032;-68
2022/03/29 03:03:11;;;;;;;15.02;8.90;;;10.50;76.90;;;;;;5051473;28;20047;-69
2022/03/29 03:05:37;;;;;;;14.50;8.90;;;10.60;76.10;;;;;;5057918;28;20148;-68
2022/03/29 03:08:03;;;;;;;19.25;8.95;;;10.70;75.60;;;;;;5055467;28;20051;-69
2022/03/29 03:10:28;;;;;;;15.02;9.25;;;10.80;75.00;;;;;;5053038;28;20038;-68
2022/03/29 03:12:54;;;;;;;14.75;8.65;;;10.80;74.70;;;;;;5060446;28;20064;-68
2022/03/29 03:15:22;;;;;;;13.20;9.82;;;10.90;74.10;;;;;;5058914;28;20102;-68
2022/03/29 03:17:50;;;;;;;15.05;8.40;;;10.90;73.80;;;;;;5060659;28;20037;-68
2022/03/29 03:20:17;;;;;;;12.65;8.27;;;10.90;73.40;;;;;;5061510;28;20024;-68
2022/03/29 03:22:43;;;;;;;11.73;8.63;;;10.90;73.00;;;;;;5058500;28;20044;-69
2022/03/29 03:25:10;;;;;;;11.75;7.97;;;11.00;72.80;;;;;;5055235;28;20769;-69
2022/03/29 03:27:36;;;;;;;13.20;7.75;;;11.00;72.90;;;;;;5056130;28;20084;-68
2022/03/29 03:30:06;;;;;;;11.23;8.18;;;11.00;73.10;;;;;;5059410;28;20118;-68
2022/03/29 03:32:32;;;;;;;12.38;7.93;;;11.00;72.30;;;;;;5056547;28;20725;-68
2022/03/29 03:34:58;;;;;;;11.95;7.80;;;11.10;72.10;;;;;;5054734;28;20048;-68
2022/03/29 03:37:24;;;;;;;12.23;8.20;;;11.10;71.80;;;;;;5059529;28;20043;-68
2022/03/29 03:39:50;;;;;;;10.82;8.10;;;11.10;71.60;;;;;;5052990;28;20041;-68
2022/03/29 03:42:15;;;;;;;11.30;8.30;;;11.10;71.50;;;;;;5054506;28;20045;-68
2022/03/29 03:44:41;;;;;;;12.68;8.20;;;11.10;71.30;;;;;;5053418;28;20115;-68
2022/03/29 03:47:10;;;;;;;10.18;7.95;;;11.20;71.00;;;;;;5059425;28;20183;-68
2022/03/29 03:49:38;;;;;;;10.75;8.15;;;11.20;70.60;;;;;;5055799;28;20033;-68
2022/03/29 03:52:05;;;;;;;12.10;8.30;;;11.20;70.50;;;;;;5056262;28;20032;-68
2022/03/29 03:54:32;;;;;;;12.50;9.02;;;11.30;70.50;;;;;;5054461;28;20114;-68
2022/03/29 03:56:58;;;;;;;14.50;8.73;;;11.20;70.30;;;;;;5050697;28;20105;-68
2022/03/29 03:59:24;;;;;;;12.93;9.45;;;11.20;70.30;;;;;;5054669;28;20036;-68
2022/03/29 04:01:49;;;;;;;14.60;8.55;;;11.20;70.00;;;;;;5049329;28;20497;-68
2022/03/29 04:04:15;;;;;;;16.50;7.80;;;11.30;70.30;;;;;;5048305;28;20040;-68
2022/03/29 04:06:41;;;;;;;12.15;8.57;;;11.30;69.50;;;;;;5052835;28;20040;-68
2022/03/29 04:09:07;;;;;;;11.30;8.48;;;11.40;69.10;;;;;;5056172;28;20492;-69
2022/03/29 04:11:32;;;;;;;16.27;9.07;;;11.40;68.90;;;;;;5051360;28;20083;-68
2022/03/29 04:14:01;;;;;;;12.90;8.52;;;11.50;68.80;;;;;;5049805;28;20077;-72
2022/03/29 04:16:27;;;;;;;15.25;8.75;;;11.50;68.50;;;;;;5060507;28;20037;-73
2022/03/29 04:18:53;;;;;;;12.82;8.18;;;11.60;68.60;;;;;;5050008;28;20098;-72
2022/03/29 04:21:19;;;;;;;11.23;7.95;;;11.50;68.90;;;;;;5050429;28;20055;-73
2022/03/29 04:23:45;;;;;;;10.45;8.18;;;11.50;68.90;;;;;;5052953;28;20395;-73
2022/03/29 04:26:10;;;;;;;16.17;9.77;;;11.50;68.80;;;;;;5049311;28;20052;-73
2022/03/29 04:28:36;;;;;;;18.63;11.20;;;11.50;69.00;;;;;;5055335;28;20044;-73
2022/03/29 04:31:02;;;;;;;14.63;10.00;;;11.40;68.80;;;;;;5054912;28;20116;-73
2022/03/29 04:33:28;;;;;;;16.15;10.30;;;11.40;68.90;;;;;;5057172;28;20127;-73
2022/03/29 04:35:55;;;;;;;14.35;9.02;;;11.40;69.00;;;;;;5055085;28;20733;-73
2022/03/29 04:38:21;;;;;;;12.30;8.77;;;11.30;69.00;;;;;;5052498;28;20051;-73
2022/03/29 04:40:47;;;;;;;14.70;10.52;;;11.30;69.30;;;;;;5033140;28;20127;-73
2022/03/29 04:43:13;;;;;;;12.93;9.25;;;11.20;69.50;;;;;;5056215;28;20560;-73
2022/03/29 04:45:38;;;;;;;12.00;9.15;;;11.20;69.80;;;;;;5054792;28;20041;-73
2022/03/29 04:48:04;;;;;;;14.68;9.52;;;11.10;70.00;;;;;;5051861;28;20037;-72
2022/03/29 04:50:30;;;;;;;15.05;9.15;;;11.20;70.10;;;;;;5052274;28;20050;-73
2022/03/29 04:52:56;;;;;;;12.40;9.10;;;11.10;70.10;;;;;;5049592;28;20051;-73
2022/03/29 04:55:22;;;;;;;13.63;9.15;;;11.10;70.30;;;;;;5052128;28;20060;-72
2022/03/29 04:57:49;;;;;;;11.23;8.82;;;11.10;70.30;;;;;;5056294;28;20036;-73
2022/03/29 05:00:20;;;;;;;12.70;9.70;;;11.10;70.30;;;;;;5053469;28;20064;-73
2022/03/29 05:02:47;;;;;;;19.27;10.95;;;11.20;70.20;;;;;;5046757;28;20049;-72
2022/03/29 05:05:14;;;;;;;14.55;9.38;;;11.30;70.40;;;;;;5049444;28;20037;-73
2022/03/29 05:07:41;;;;;;;15.52;9.85;;;11.30;70.40;;;;;;5062062;28;20041;-72
2022/03/29 05:10:08;;;;;;;12.32;9.75;;;11.50;69.80;;;;;;5055626;28;20049;-73
2022/03/29 05:12:47;;;;;;;41.00;10.90;;;11.60;69.50;;;;;;5050692;28;20033;-72
2022/03/29 05:15:16;;;;;;;21.52;13.05;;;11.70;69.80;;;;;;5053715;28;20024;-72
2022/03/29 05:17:43;;;;;;;25.42;13.40;;;11.80;69.60;;;;;;5055578;28;20033;-72
2022/03/29 05:20:10;;;;;;;14.95;10.82;;;11.90;70.40;;;;;;5051950;28;20071;-73
2022/03/29 05:22:47;;;;;;;18.88;10.13;;;11.90;69.50;;;;;;5053081;28;20041;-73
2022/03/29 05:25:14;;;;;;;16.70;10.57;;;12.00;69.00;;;;;;5049708;28;20033;-73
2022/03/29 05:27:40;;;;;;;17.00;10.65;;;12.00;68.90;;;;;;5036276;28;21540;-73
2022/03/29 05:30:06;;;;;;;17.48;10.85;;;12.20;69.20;;;;;;5056362;28;20752;-73
2022/03/29 05:32:32;;;;;;;13.95;10.18;;;12.30;68.70;;;;;;5054148;28;20187;-73
2022/03/29 05:34:58;;;;;;;16.45;9.68;;;12.20;69.40;;;;;;5051798;28;20047;-73
2022/03/29 05:37:23;;;;;;;13.75;10.18;;;12.20;70.30;;;;;;5053165;28;20689;-73
2022/03/29 05:39:49;;;;;;;13.05;10.40;;;12.30;70.60;;;;;;5058734;28;20940;-73
2022/03/29 05:42:15;;;;;;;14.45;10.98;;;12.10;70.90;;;;;;5050397;28;20143;-73
2022/03/29 05:44:40;;;;;;;15.30;11.25;;;11.80;72.50;;;;;;5057347;28;20069;-73
2022/03/29 05:49:52;;;;;;;16.48;12.10;;;11.50;73.20;;;;;;5049899;28;20092;-73
2022/03/29 05:52:18;;;;;;;18.63;11.95;;;11.40;74.80;;;;;;5051598;28;20130;-73
2022/03/29 05:54:45;;;;;;;17.90;12.10;;;11.10;75.40;;;;;;5057779;28;20064;-73
2022/03/29 05:57:14;;;;;;;18.63;12.23;;;10.90;76.80;;;;;;5054153;28;20083;-73
2022/03/29 05:59:40;;;;;;;17.52;11.63;;;11.00;77.40;;;;;;5060017;28;20563;-73
2022/03/29 06:02:07;;;;;;;18.38;12.73;;;11.10;77.60;;;;;;5053136;28;20040;-73
2022/03/29 06:04:32;;;;;;;22.98;12.80;;;11.20;77.20;;;;;;5051161;28;20056;-73
2022/03/29 06:06:58;;;;;;;15.95;12.23;;;11.10;77.10;;;;;;5056310;28;20028;-73
2022/03/29 06:09:24;;;;;;;17.98;13.00;;;11.30;77.10;;;;;;5061927;28;20063;-73
2022/03/29 06:11:50;;;;;;;21.30;13.60;;;11.40;76.20;;;;;;5066881;28;20095;-73
2022/03/29 06:14:16;;;;;;;18.52;12.63;;;11.50;76.80;;;;;;5058770;28;20032;-73
2022/03/29 06:16:42;;;;;;;18.67;12.80;;;11.40;76.90;;;;;;5069256;28;20440;-73
2022/03/29 06:19:11;;;;;;;18.30;12.52;;;11.40;77.60;;;;;;5064331;28;20040;-73
2022/03/29 06:21:37;;;;;;;19.58;13.70;;;11.50;77.70;;;;;;5064192;28;20043;-73
2022/03/29 06:24:07;;;;;;;17.90;13.05;;;11.60;77.40;;;;;;5057532;28;20052;-73
2022/03/29 06:26:36;;;;;;;16.52;12.30;;;11.80;76.80;;;;;;5063473;28;20044;-73
2022/03/29 06:29:03;;;;;;;15.63;12.25;;;12.00;76.00;;;;;;5064743;28;20098;-73
2022/03/29 06:31:29;;;;;;;15.75;11.43;;;12.10;75.90;;;;;;5059130;28;20382;-73
2022/03/29 06:33:55;;;;;;;25.10;12.52;;;12.30;74.70;;;;;;5062733;28;20077;-73
2022/03/29 06:36:20;;;;;;;16.77;13.20;;;12.50;74.70;;;;;;5062653;28;20073;-73
2022/03/29 06:38:46;;;;;;;18.70;12.48;;;12.70;73.80;;;;;;5064145;28;20040;-73
2022/03/29 06:41:13;;;;;;;15.32;11.25;;;12.90;73.10;;;;;;5055385;28;20689;-73
2022/03/29 06:43:39;;;;;;;15.68;12.13;;;13.00;72.10;;;;;;5061762;28;20032;-73
2022/03/29 06:46:07;;;;;;;16.63;12.15;;;13.20;72.00;;;;;;5065776;28;20393;-73
2022/03/29 06:48:33;;;;;;;15.10;11.55;;;13.30;71.60;;;;;;5065522;28;20451;-73
2022/03/29 06:50:59;;;;;;;22.02;11.88;;;13.60;69.40;;;;;;5060499;28;20044;-73
2022/03/29 06:53:25;;;;;;;21.02;12.18;;;13.80;68.90;;;;;;5058259;28;20123;-73
2022/03/29 06:55:51;;;;;;;17.42;11.05;;;14.10;68.30;;;;;;5066812;28;20628;-73
2022/03/29 06:58:19;;;;;;;17.63;11.88;;;14.30;65.60;;;;;;5057591;28;20563;-73
2022/03/29 07:00:45;;;;;;;19.25;11.15;;;14.40;65.70;;;;;;5054955;28;20091;-73
2022/03/29 07:03:10;;;;;;;13.35;10.77;;;14.60;64.10;;;;;;5056902;28;20040;-73
2022/03/29 07:05:38;;;;;;;16.40;11.68;;;14.70;63.90;;;;;;5059248;28;20872;-73
2022/03/29 07:08:10;;;;;;;13.80;10.32;;;14.90;62.20;;;;;;5061460;28;20041;-73
2022/03/29 07:13:23;;;;;;;15.52;10.73;;;15.10;61.70;;;;;;5052820;28;20191;-73
2022/03/29 07:15:50;;;;;;;14.35;9.43;;;15.40;60.00;;;;;;5053645;28;20059;-73
2022/03/29 07:18:16;;;;;;;15.95;10.43;;;15.50;58.90;;;;;;5050480;28;20774;-73
2022/03/29 07:20:42;;;;;;;12.77;9.70;;;15.60;58.70;;;;;;5055739;28;20037;-73
2022/03/29 07:23:08;;;;;;;12.38;8.82;;;15.80;57.60;;;;;;5055839;28;20044;-73
2022/03/29 07:25:34;;;;;;;14.07;9.43;;;15.90;57.10;;;;;;5059682;28;20469;-73
2022/03/29 07:28:01;;;;;;;11.85;8.50;;;16.00;56.20;;;;;;5059743;28;20140;-73
2022/03/29 07:30:27;;;;;;;14.50;10.05;;;16.10;55.70;;;;;;5054654;28;20079;-73
2022/03/29 07:32:58;;;;;;;15.57;9.57;;;16.30;53.20;;;;;;5055640;28;20041;-73
2022/03/29 07:35:26;;;;;;;14.68;10.50;;;16.40;52.90;;;;;;5059174;28;20096;-73
2022/03/29 07:37:53;;;;;;;14.25;9.82;;;16.50;52.10;;;;;;5061739;28;20057;-73
2022/03/29 07:40:22;;;;;;;14.90;10.13;;;16.50;52.40;;;;;;5062149;28;20056;-74
2022/03/29 07:42:49;;;;;;;16.65;10.65;;;16.60;52.60;;;;;;5060312;28;20442;-73
2022/03/29 07:45:16;;;;;;;16.52;10.43;;;16.60;52.50;;;;;;5063284;28;20067;-73
2022/03/29 07:47:43;;;;;;;13.85;10.10;;;16.70;53.20;;;;;;5069662;28;20037;-73
2022/03/29 07:50:11;;;;;;;13.90;9.52;;;16.80;52.00;;;;;;5073168;28;20040;-73
2022/03/29 07:52:41;;;;;;;14.43;10.02;;;16.80;51.70;;;;;;5076593;28;20157;-73
2022/03/29 07:55:10;;;;;;;14.02;10.15;;;16.90;50.50;;;;;;5071809;28;20079;-73
2022/03/29 07:57:36;;;;;;;16.95;8.63;;;17.00;49.10;;;;;;5069625;28;20055;-73
2022/03/29 08:00:31;;;;;;;16.88;9.98;;;17.10;48.30;;;;;;5046700;28;20098;-73
2022/03/29 08:02:50;;;;;;;18.30;9.55;;;17.10;49.30;;;;;;5070897;28;20047;-73
2022/03/29 08:05:16;;;;;;;16.15;9.65;;;17.20;49.00;;;;;;5070518;28;20045;-73
2022/03/29 08:07:41;;;;;;;14.35;8.93;;;17.30;48.40;;;;;;5067946;28;20033;-73
2022/03/29 08:10:08;;;;;;;14.88;9.60;;;17.40;48.20;;;;;;5066340;28;20044;-73
2022/03/29 08:12:37;;;;;;;13.40;8.48;;;17.50;48.40;;;;;;5065085;28;20029;-72
2022/03/29 08:15:04;;;;;;;15.45;8.43;;;17.50;48.40;;;;;;5069187;28;20048;-73
2022/03/29 08:17:30;;;;;;;11.85;8.48;;;17.70;47.30;;;;;;5073486;28;20025;-73
2022/03/29 08:19:56;;;;;;;12.63;9.13;;;17.70;47.50;;;;;;5070918;28;20041;-72
2022/03/29 08:22:21;;;;;;;16.08;9.48;;;17.90;47.00;;;;;;5063073;28;20086;-73
2022/03/29 08:24:47;;;;;;;13.30;9.05;;;17.90;46.90;;;;;;5061615;28;20039;-73
2022/03/29 08:27:14;;;;;;;12.10;9.18;;;18.00;46.70;;;;;;5056367;28;20032;-73
2022/03/29 08:29:40;;;;;;;16.25;9.80;;;18.10;46.50;;;;;;5062268;28;20091;-74
2022/03/29 08:32:06;;;;;;;14.18;9.20;;;18.10;47.10;;;;;;5058867;28;20033;-73
2022/03/29 08:34:32;;;;;;;13.18;8.98;;;18.10;46.10;;;;;;5051774;28;20044;-73
2022/03/29 08:36:58;;;;;;;16.35;9.23;;;18.20;46.00;;;;;;5049390;28;20668;-73
2022/03/29 08:39:24;;;;;;;18.02;9.05;;;18.20;45.80;;;;;;5057122;28;20052;-73
2022/03/29 08:41:55;;;;;;;14.88;9.23;;;18.20;46.10;;;;;;5054320;28;20047;-73
2022/03/29 08:44:24;;;;;;;11.68;8.85;;;18.20;46.30;;;;;;5055929;28;20067;-73
2022/03/29 08:46:50;;;;;;;14.35;9.40;;;18.40;46.70;;;;;;5055682;28;20029;-73
2022/03/29 08:49:17;;;;;;;13.30;8.63;;;18.40;46.70;;;;;;5057497;28;20119;-74
2022/03/29 08:51:43;;;;;;;11.73;9.20;;;18.50;45.30;;;;;;5065782;28;20021;-74
2022/03/29 08:54:09;;;;;;;13.32;9.45;;;18.50;44.90;;;;;;5053661;28;20036;-73
2022/03/29 08:56:35;;;;;;;14.38;9.75;;;18.50;45.70;;;;;;5060903;28;20405;-74
2022/03/29 08:59:00;;;;;;;14.82;10.10;;;18.60;45.90;;;;;;5062714;28;20044;-74
2022/03/29 09:01:27;;;;;;;15.50;9.02;;;18.60;46.00;;;;;;5058895;28;20091;-74
2022/03/29 09:04:09;;;;;;;14.55;9.65;;;18.60;45.10;;;;;;5046762;28;20878;-73
2022/03/29 09:06:56;;;;;;;14.88;9.77;;;18.60;45.80;;;;;;5057539;28;20041;-74
2022/03/29 09:09:31;;;;;;;14.77;9.32;;;18.70;46.10;;;;;;5039320;28;20095;-73
2022/03/29 09:11:59;;;;;;;15.05;9.50;;;18.80;45.00;;;;;;5036005;28;20100;-71
2022/03/29 09:14:29;;;;;;;15.25;9.77;;;18.80;45.20;;;;;;5048120;28;20123;-72
2022/03/29 09:16:55;;;;;;;14.98;9.32;;;18.80;45.40;;;;;;5051948;28;20522;-73
2022/03/29 09:19:25;;;;;;;17.60;9.43;;;18.80;45.30;;;;;;5041900;28;20139;-74
2022/03/29 09:21:55;;;;;;;12.98;9.60;;;18.90;45.90;;;;;;5042120;28;20048;-74
2022/03/29 09:24:22;;;;;;;11.40;9.55;;;18.90;45.40;;;;;;5048993;28;20053;-73
2022/03/29 09:26:55;;;;;;;13.85;9.25;;;19.00;45.00;;;;;;5023308;28;20041;-73
2022/03/29 09:29:23;;;;;;;13.43;9.00;;;19.10;45.40;;;;;;5044992;28;20325;-74
2022/03/29 09:32:06;;;;;;;13.85;9.80;;;19.20;45.70;;;;;;5052396;28;20068;-74
2022/03/29 09:34:33;;;;;;;12.73;9.85;;;19.40;45.20;;;;;;5049709;28;20032;-74
2022/03/29 09:37:01;;;;;;;15.25;9.05;;;19.40;45.10;;;;;;5050896;28;20035;-74
2022/03/29 09:39:29;;;;;;;13.63;9.48;;;19.50;46.20;;;;;;5050187;28;20413;-74
2022/03/29 09:42:00;;;;;;;14.57;8.68;;;19.70;44.80;;;;;;5047236;28;20101;-74
2022/03/29 09:44:37;;;;;;;14.13;8.02;;;19.80;41.90;;;;;;5050835;28;20041;-74
2022/03/29 09:47:07;;;;;;;18.20;9.02;;;19.70;40.90;;;;;;5047213;28;20441;-73
2022/03/29 09:49:53;;;;;;;14.63;9.23;;;19.70;41.40;;;;;;5047096;28;20057;-72
2022/03/29 09:52:23;;;;;;;13.65;9.05;;;19.70;40.70;;;;;;5035629;28;20131;-75
2022/03/29 09:55:09;;;;;;;18.73;9.65;;;19.70;40.90;;;;;;5046206;28;20039;-73
2022/03/29 09:57:41;;;;;;;22.02;9.98;;;19.70;40.40;;;;;;5035855;28;20509;-72
2022/03/29 10:00:09;;;;;;;16.27;10.07;;;19.60;39.80;;;;;;5041817;28;20033;-72
2022/03/29 10:02:38;;;;;;;15.95;10.65;;;19.50;39.80;;;;;;5044700;28;20025;-72
2022/03/29 10:05:04;;;;;;;18.80;9.82;;;19.50;40.80;;;;;;5049633;28;20044;-73
2022/03/29 10:09:25;;;;;;;15.10;10.35;;;19.50;40.10;;;;;;5054165;28;20033;-72
2022/03/29 10:10:44;;;;;;;16.30;10.48;;;19.60;39.70;;;;;;5056112;28;20033;-73
2022/03/29 10:13:11;;;;;;;13.65;10.13;;;19.60;39.90;;;;;;5052661;28;20040;-72
2022/03/29 10:15:39;;;;;;;16.10;10.32;;;19.80;41.10;;;;;;5062041;28;20040;-72
2022/03/29 10:18:05;;;;;;;21.02;11.48;;;19.90;41.50;;;;;;5056000;28;20043;-72
2022/03/29 10:20:33;;;;;;;16.98;11.43;;;20.00;39.80;;;;;;5054415;28;20044;-72
2022/03/29 10:22:59;;;;;;;15.73;10.43;;;19.90;40.90;;;;;;5051334;28;20032;-72
2022/03/29 10:25:27;;;;;;;15.25;11.52;;;19.90;40.70;;;;;;5056673;28;20072;-72
2022/03/29 10:27:58;;;;;;;17.80;12.25;;;19.90;39.30;;;;;;5045424;28;20055;-73
2022/03/29 10:30:35;;;;;;;21.47;11.57;;;19.90;39.70;;;;;;5055806;28;20056;-73
2022/03/29 10:33:23;;;;;;;18.52;12.50;;;20.10;37.20;;;;;;5051458;28;20786;-73
2022/03/29 10:36:09;;;;;;;20.58;12.57;;;20.00;36.90;;;;;;5050345;28;20501;-73
2022/03/29 10:38:47;;;;;;;18.35;12.25;;;20.00;36.80;;;;;;5045419;28;20119;-74
2022/03/29 10:41:44;;;;;;;18.13;10.93;;;20.00;37.30;;;;;;5050980;28;20122;-73
2022/03/29 10:44:14;;;;;;;18.35;11.18;;;20.00;37.80;;;;;;5026393;28;20036;-73
2022/03/29 10:46:48;;;;;;;17.95;12.48;;;20.00;39.00;;;;;;5043997;28;20032;-74
2022/03/29 10:49:24;;;;;;;15.15;11.55;;;20.20;37.50;;;;;;5048828;28;20599;-73
2022/03/29 10:52:10;;;;;;;21.85;11.63;;;20.20;39.10;;;;;;5046175;28;20060;-73
2022/03/29 10:54:41;;;;;;;19.90;11.10;;;20.30;37.90;;;;;;5012021;28;20044;-72
2022/03/29 10:57:24;;;;;;;19.70;12.43;;;20.30;38.90;;;;;;5051109;28;20048;-73
2022/03/29 10:59:58;;;;;;;19.15;12.65;;;20.30;38.90;;;;;;5031032;28;20754;-73
2022/03/29 11:02:25;;;;;;;19.38;12.18;;;20.30;38.90;;;;;;5048752;28;20598;-72
2022/03/29 11:05:12;;;;;;;20.85;12.15;;;20.40;38.10;;;;;;5048355;28;20041;-73
2022/03/29 11:07:52;;;;;;;18.63;12.55;;;20.40;38.40;;;;;;5043146;28;20033;-73
2022/03/29 11:10:20;;;;;;;16.05;11.88;;;20.40;37.00;;;;;;5054730;28;20032;-72
2022/03/29 11:12:51;;;;;;;17.23;12.75;;;20.50;37.90;;;;;;5039500;28;20195;-73
2022/03/29 11:15:35;;;;;;;19.92;12.98;;;20.50;37.30;;;;;;5054545;28;20130;-73
2022/03/29 11:18:04;;;;;;;18.27;12.52;;;20.50;37.70;;;;;;5047413;28;20513;-73
2022/03/29 11:20:38;;;;;;;21.92;13.07;;;20.40;37.60;;;;;;5049552;28;20040;-73
2022/03/29 11:23:04;;;;;;;18.35;12.35;;;20.50;37.10;;;;;;5036086;28;20048;-73
2022/03/29 11:25:41;;;;;;;20.83;13.20;;;20.50;37.60;;;;;;5056390;28;20044;-74
2022/03/29 11:28:09;;;;;;;17.95;13.23;;;20.50;36.00;;;;;;5060202;28;20065;-73
2022/03/29 11:30:36;;;;;;;19.80;13.23;;;20.60;36.30;;;;;;5055815;28;20497;-73
2022/03/29 11:33:06;;;;;;;20.48;12.70;;;20.60;37.00;;;;;;5058177;28;20052;-73
2022/03/29 11:35:34;;;;;;;20.23;13.23;;;20.70;36.20;;;;;;5056343;28;20080;-73
2022/03/29 11:38:11;;;;;;;22.33;13.65;;;20.60;36.60;;;;;;5053626;28;20044;-73
2022/03/29 11:40:38;;;;;;;17.55;13.65;;;20.50;36.40;;;;;;5056696;28;20068;-73
2022/03/29 11:43:06;;;;;;;20.98;13.18;;;20.40;36.50;;;;;;5058057;28;20059;-73
2022/03/29 11:45:55;;;;;;;19.83;14.50;;;20.30;37.20;;;;;;5058079;28;20043;-72
2022/03/29 11:48:24;;;;;;;20.48;14.30;;;20.30;37.20;;;;;;5052617;28;20038;-73
2022/03/29 11:51:00;;;;;;;18.25;14.20;;;20.20;38.40;;;;;;5057835;28;20035;-72
2022/03/29 11:53:30;;;;;;;22.20;13.55;;;20.10;38.30;;;;;;5056631;28;20172;-72
2022/03/29 11:55:59;;;;;;;18.52;13.65;;;20.20;39.40;;;;;;5054686;28;20382;-74
2022/03/29 11:58:38;;;;;;;18.95;13.07;;;20.30;37.40;;;;;;5055138;28;20533;-72
2022/03/29 12:01:11;;;;;;;18.23;13.43;;;20.30;37.50;;;;;;5059353;28;20040;-73
2022/03/29 12:03:41;;;;;;;21.35;12.63;;;20.20;37.80;;;;;;5034626;28;20930;-73
2022/03/29 12:06:28;;;;;;;19.77;12.68;;;20.30;37.30;;;;;;5054093;28;20115;-72
2022/03/29 12:09:04;;;;;;;19.02;12.63;;;20.30;37.30;;;;;;5050414;28;20086;-72
2022/03/29 12:11:36;;;;;;;19.45;12.75;;;20.20;37.00;;;;;;5052825;28;20021;-74
2022/03/29 12:14:12;;;;;;;18.92;12.38;;;20.10;37.80;;;;;;5051172;28;20048;-75
2022/03/29 12:16:45;;;;;;;22.05;12.25;;;20.30;37.30;;;;;;5060061;28;20119;-74
2022/03/29 12:19:14;;;;;;;18.52;13.27;;;20.30;35.90;;;;;;5052313;28;20071;-72
2022/03/29 12:21:45;;;;;;;16.30;12.30;;;20.20;35.50;;;;;;5051747;28;20541;-74
2022/03/29 12:24:12;;;;;;;31.48;12.73;;;20.20;36.80;;;;;;5055376;28;20091;-75
2022/03/29 12:26:44;;;;;;;17.98;11.90;;;20.20;36.20;;;;;;5054498;28;20563;-73
2022/03/29 12:29:20;;;;;;;15.95;11.32;;;20.20;35.60;;;;;;5053644;28;21509;-74
2022/03/29 12:31:46;;;;;;;21.05;11.93;;;20.20;36.50;;;;;;5053589;28;20120;-73
2022/03/29 12:34:14;;;;;;;19.50;11.68;;;20.20;35.40;;;;;;5050786;28;20044;-73
2022/03/29 12:36:56;;;;;;;27.40;12.85;;;20.20;35.40;;;;;;5050413;28;20036;-73
2022/03/29 12:39:22;;;;;;;21.10;11.88;;;20.00;35.10;;;;;;5052776;28;20048;-72
2022/03/29 12:41:48;;;;;;;14.38;10.90;;;19.90;35.20;;;;;;5053553;28;20035;-73
2022/03/29 12:44:39;;;;;;;14.98;11.00;;;19.90;35.30;;;;;;5044177;28;20532;-72
2022/03/29 12:47:06;;;;;;;21.95;11.65;;;20.00;34.70;;;;;;5053027;28;20099;-73
2022/03/29 12:49:36;;;;;;;17.70;10.88;;;20.00;35.20;;;;;;5045565;28;20032;-73